Huvudsida
METAR-TAF:

METAR-TAF

Flygplatser :

Izmir, Turkiet

latitud: 38-30N, longitud: 027-01E, höjd: 5 m

METAR: saknas

Tid: 16:27 (13:27 UTC)

Väderprognos

Denna rapport gjordes för 2 timmar och 47 minuter sedan, klockan 10:40 UTC
Prognos gäller från 22 kl. 12 UTC till 22 kl. 21 UTC
Vind 13 kt från nord
Sikt 10 km eller mer
Spridda moln på en höjd av 4000 ft
Brutna moln på en höjd av 10000 ft
Blir
från 22 kl. 17 UTC till 22 kl. 18 UTC
Sikt 10 km eller mer
Inga moln under 1 500 m eller inga cumulonimbus

TAF: LTBL 221040Z 2212/2221 01013KT 9999 SCT040 BKN100 BECMG 2217/2218 CAVOK

Aktuella väderrapporter och prognoser från 4000 flygplatser (METAR- och TAF-rapporter).

De tillgängliga stationerna syns som gula och röda prickar på kartan.

För musen över prickarna för att se namnen på stationerna.

Klicka sedan för att få väderrapporter och prognoser.

För att ändra kartan: Klicka på de gröna knapparna med ett svart kors på för att zooma in; den gröna knappen med ett streck på för att zooma ut; eller på de gröna pilarna för angränsande kartor.


METAR-TAF: